Terminal Aerodrome Forecast
Issued by NWS Mobile, AL

Current Version | Previous Version | Text Only | Print | Product List | Glossary On
Versions: 1 2 3 4 5 6 7 8 9 10 11 12 13 14 15
000
FTUS44 KMOB 291154 AAA
TAFPNS
TAF AMD
KPNS 291154Z 2912/3012 07007KT 1 1/2SM +RA VCTS BKN009 BKN023CB
      OVC050
     FM291700 15008KT P6SM VCTS BKN030CB OVC080
     FM300300 15006KT P6SM BKN100
     FM300900 17005KT P6SM BKN250=

USA.gov is the U.S. government's official web portal to all federal, state and local government web resources and services.